Time;durP1;ratioP1;P1;durP2;ratioP2;P2;SDS_P1;SDS_P2;PMS_P1;PMS_P2;Temp;Humidity;BMP_temperature;BMP_pressure;BME280_temperature;BME280_humidity;BME280_pressure;Samples;Min_cycle;Max_cycle;Signal;HPM_P1;HPM_P2
2021/03/24 00:02:09;;;;;;;68.60;38.57;;;;;;;6.12;65.05;101130.94;5081389;28;21087;-67
2021/03/24 00:04:35;;;;;;;76.13;39.57;;;;;;;6.08;65.03;101124.13;5081805;28;20447;-67
2021/03/24 00:07:03;;;;;;;68.50;40.00;;;;;;;6.16;64.49;101127.19;5081423;28;20470;-68
2021/03/24 00:09:29;;;;;;;71.60;37.60;;;;;;;6.06;64.85;101127.78;5080032;28;20488;-67
2021/03/24 00:11:56;;;;;;;72.13;38.70;;;;;;;6.00;64.94;101123.72;5080921;28;20509;-66
2021/03/24 00:14:22;;;;;;;70.97;37.70;;;;;;;5.95;65.00;101128.41;5081421;28;20448;-67
2021/03/24 00:16:49;;;;;;;74.53;39.80;;;;;;;5.91;65.13;101127.72;5080765;28;20475;-67
2021/03/24 00:19:15;;;;;;;63.77;37.30;;;;;;;5.89;65.30;101129.63;5081842;28;20470;-68
2021/03/24 00:21:41;;;;;;;72.70;38.10;;;;;;;5.89;65.63;101142.03;5080854;28;20480;-66
2021/03/24 00:24:09;;;;;;;81.33;39.27;;;;;;;5.89;65.50;101148.19;5081775;28;20436;-67
2021/03/24 00:26:35;;;;;;;62.43;37.40;;;;;;;5.95;65.45;101136.34;5080804;28;20487;-67
2021/03/24 00:29:01;;;;;;;77.03;37.90;;;;;;;6.03;65.19;101139.47;5081410;28;21003;-67
2021/03/24 00:31:28;;;;;;;74.03;39.77;;;;;;;5.83;65.32;101138.78;5080256;28;20484;-67
2021/03/24 00:33:54;;;;;;;68.57;36.67;;;;;;;5.79;65.53;101145.19;5081650;28;20456;-68
2021/03/24 00:36:20;;;;;;;68.50;38.57;;;;;;;5.68;65.77;101133.47;5080139;28;20491;-67
2021/03/24 00:38:46;;;;;;;65.93;37.53;;;;;;;5.77;65.80;101138.28;5080914;28;20463;-68
2021/03/24 00:41:13;;;;;;;67.83;36.50;;;;;;;5.73;65.65;101126.13;5080497;28;20499;-66
2021/03/24 00:43:40;;;;;;;72.90;38.27;;;;;;;5.69;65.68;101127.25;5081117;28;20452;-67
2021/03/24 00:46:06;;;;;;;67.37;38.07;;;;;;;5.62;65.61;101124.97;5080034;28;20503;-68
2021/03/24 00:48:34;;;;;;;67.97;38.00;;;;;;;5.44;66.32;101125.97;5080527;28;20510;-68
2021/03/24 00:51:01;;;;;;;62.87;35.73;;;;;;;5.50;66.34;101120.31;5080621;28;20475;-68
2021/03/24 00:53:27;;;;;;;72.83;39.53;;;;;;;5.51;66.15;101124.69;5080808;28;20929;-68
2021/03/24 00:55:54;;;;;;;73.63;37.40;;;;;;;5.58;65.62;101123.41;5080465;28;20476;-68
2021/03/24 00:58:21;;;;;;;66.50;37.30;;;;;;;5.59;65.57;101117.16;5080746;28;20454;-68
2021/03/24 01:00:49;;;;;;;68.87;37.57;;;;;;;5.56;65.58;101117.34;5080660;28;20482;-68
2021/03/24 01:03:16;;;;;;;67.17;38.00;;;;;;;5.57;65.46;101119.06;5080776;28;20469;-67
2021/03/24 01:05:43;;;;;;;68.70;36.80;;;;;;;5.55;65.18;101120.06;5079347;28;20506;-68
2021/03/24 01:08:11;;;;;;;71.97;38.10;;;;;;;5.48;65.42;101114.25;5080627;28;20479;-67
2021/03/24 01:10:39;;;;;;;66.63;36.20;;;;;;;5.35;65.66;101113.25;5080514;28;20746;-68
2021/03/24 01:13:06;;;;;;;68.07;35.97;;;;;;;5.36;65.55;101126.41;5080620;28;20452;-66
2021/03/24 01:15:35;;;;;;;61.87;33.00;;;;;;;5.31;65.23;101122.28;5080553;28;20471;-68
2021/03/24 01:18:01;;;;;;;58.93;32.90;;;;;;;5.37;64.69;101125.47;5080978;28;20459;-67
2021/03/24 01:20:30;;;;;;;61.23;34.37;;;;;;;5.40;64.28;101121.78;5080771;28;20463;-68
2021/03/24 01:22:57;;;;;;;60.63;34.00;;;;;;;5.17;65.41;101115.94;5080840;28;20523;-68
2021/03/24 01:25:23;;;;;;;69.33;34.27;;;;;;;5.13;65.84;101117.06;5080277;28;20467;-65
2021/03/24 01:27:50;;;;;;;63.57;36.27;;;;;;;5.21;65.55;101106.91;5080366;28;20456;-68
2021/03/24 01:30:19;;;;;;;67.07;36.57;;;;;;;5.25;65.67;101107.59;5080073;28;20451;-64
2021/03/24 01:32:46;;;;;;;71.50;36.20;;;;;;;5.31;65.46;101103.75;5080941;28;20432;-68
2021/03/24 01:35:13;;;;;;;63.90;36.87;;;;;;;5.30;65.29;101104.69;5080475;28;20470;-68
2021/03/24 01:37:41;;;;;;;68.60;35.80;;;;;;;5.27;65.38;101109.19;5079949;28;20510;-67
2021/03/24 01:40:09;;;;;;;62.10;35.80;;;;;;;5.27;65.30;101101.25;5080160;28;20482;-68
2021/03/24 01:42:36;;;;;;;62.80;34.57;;;;;;;5.23;65.28;101098.88;5080900;28;20448;-68
2021/03/24 01:45:09;;;;;;;69.50;37.80;;;;;;;5.22;65.47;101097.16;5080857;28;20439;-68
2021/03/24 01:47:36;;;;;;;74.93;37.90;;;;;;;5.18;65.82;101101.78;5080450;28;20468;-68
2021/03/24 01:50:05;;;;;;;62.03;34.90;;;;;;;5.05;65.85;101100.72;5081043;28;20555;-67
2021/03/24 01:52:32;;;;;;;67.10;35.63;;;;;;;4.90;66.47;101100.63;5079659;28;20463;-66
2021/03/24 01:54:58;;;;;;;77.27;37.37;;;;;;;4.86;66.78;101098.22;5080989;28;20459;-67
2021/03/24 01:57:26;;;;;;;69.90;37.60;;;;;;;4.85;66.54;101100.03;5080053;28;20472;-67
2021/03/24 01:59:54;;;;;;;69.50;36.57;;;;;;;4.95;65.88;101100.41;5081111;28;20823;-67
2021/03/24 02:02:21;;;;;;;65.40;34.43;;;;;;;5.05;65.69;101100.72;5083571;28;20476;-67
2021/03/24 02:04:48;;;;;;;70.73;38.50;;;;;;;5.05;65.57;101103.38;5064562;28;20437;-68
2021/03/24 02:07:25;;;;;;;67.50;35.33;;;;;;;4.93;65.66;101098.75;5066491;28;20482;-68
2021/03/24 02:09:59;;;;;;;60.93;33.70;;;;;;;4.90;65.42;101103.28;5084257;28;20487;-65
2021/03/24 02:12:29;;;;;;;66.43;34.03;;;;;;;4.95;65.34;101096.88;5082802;28;20512;-68
2021/03/24 02:14:58;;;;;;;71.83;37.80;;;;;;;4.98;65.45;101099.34;5083888;28;20458;-68
2021/03/24 02:17:26;;;;;;;66.07;36.30;;;;;;;4.96;65.08;101099.44;5083365;28;20483;-68
2021/03/24 02:20:00;;;;;;;65.17;34.03;;;;;;;4.93;65.32;101098.75;5084168;28;20479;-67
2021/03/24 02:22:30;;;;;;;66.83;37.07;;;;;;;4.91;65.36;101101.47;5083218;28;20483;-68
2021/03/24 02:25:03;;;;;;;68.70;36.07;;;;;;;4.83;65.59;101101.06;5083833;28;20444;-67
2021/03/24 02:27:33;;;;;;;65.53;35.43;;;;;;;4.88;65.64;101099.88;5082697;28;20472;-66
2021/03/24 02:30:04;;;;;;;61.67;34.17;;;;;;;4.73;66.02;101098.03;5083263;28;20538;-66
2021/03/24 02:32:31;;;;;;;62.93;34.70;;;;;;;4.93;65.21;101098.75;5083248;28;20462;-67
2021/03/24 02:34:59;;;;;;;70.33;35.43;;;;;;;4.81;65.12;101097.63;5083714;28;20467;-67
2021/03/24 02:37:26;;;;;;;64.67;33.93;;;;;;;4.76;65.48;101097.88;5082613;28;20851;-67
2021/03/24 02:39:53;;;;;;;59.30;32.43;;;;;;;4.60;65.78;101094.31;5083600;28;20452;-67
2021/03/24 02:42:20;;;;;;;67.20;32.90;;;;;;;4.59;66.40;101095.28;5082888;28;20500;-67
2021/03/24 02:44:47;;;;;;;60.87;35.40;;;;;;;4.65;66.21;101106.41;5083297;28;20447;-67
2021/03/24 02:47:14;;;;;;;59.13;32.93;;;;;;;4.62;65.59;101098.63;5082748;28;20470;-65
2021/03/24 02:49:42;;;;;;;61.07;33.47;;;;;;;4.51;65.94;101096.53;5083375;28;20549;-67
2021/03/24 02:52:09;;;;;;;63.00;32.77;;;;;;;4.33;67.56;101101.00;5082777;28;20515;-67
2021/03/24 02:54:36;;;;;;;58.93;32.20;;;;;;;4.26;68.05;101098.75;5083130;28;20513;-67
2021/03/24 02:57:03;;;;;;;66.40;34.30;;;;;;;4.27;67.62;101103.97;5082810;28;20484;-67
2021/03/24 02:59:29;;;;;;;56.93;34.03;;;;;;;4.28;68.21;101095.06;5083215;28;20459;-66
2021/03/24 03:01:59;;;;;;;71.63;36.10;;;;;;;4.27;68.55;101093.38;5082176;28;20554;-67
2021/03/24 03:04:29;;;;;;;71.73;36.07;;;;;;;4.21;69.69;101092.84;5083354;28;20435;-66
2021/03/24 03:06:56;;;;;;;71.63;37.73;;;;;;;4.36;69.99;101083.22;5081334;28;20480;-65
2021/03/24 03:09:30;;;;;;;76.37;36.20;;;;;;;4.42;69.97;101086.41;5082164;28;20487;-66
2021/03/24 03:12:00;;;;;;;89.03;41.73;;;;;;;4.26;71.22;101082.88;5081623;28;20545;-66
2021/03/24 03:14:30;;;;;;;73.40;37.23;;;;;;;4.30;70.86;101076.47;5082598;28;20436;-63
2021/03/24 03:17:00;;;;;;;74.70;37.97;;;;;;;4.27;70.44;101080.16;5081990;28;21055;-67
2021/03/24 03:19:30;;;;;;;82.47;38.47;;;;;;;4.19;70.29;101077.03;5082022;28;20977;-64
2021/03/24 03:22:01;;;;;;;68.90;37.27;;;;;;;4.20;70.09;101084.06;5082532;28;20984;-65
2021/03/24 03:24:32;;;;;;;71.53;37.83;;;;;;;4.22;69.14;101084.81;5082536;28;20450;-64
2021/03/24 03:27:00;;;;;;;72.33;38.73;;;;;;;4.11;68.90;101089.78;5081579;28;20472;-67
2021/03/24 03:29:26;;;;;;;64.50;35.30;;;;;;;4.14;68.56;101082.56;5081925;28;20964;-66
2021/03/24 03:31:53;;;;;;;80.57;39.83;;;;;;;4.11;69.39;101080.09;5081408;28;20472;-66
2021/03/24 03:34:23;;;;;;;75.27;38.37;;;;;;;4.27;68.77;101082.78;5082762;28;20857;-67
2021/03/24 03:36:52;;;;;;;69.83;37.60;;;;;;;4.34;68.22;101086.81;5081644;28;20484;-66
2021/03/24 03:39:21;;;;;;;64.70;35.47;;;;;;;4.40;67.67;101085.66;5081465;28;20455;-65
2021/03/24 03:41:47;;;;;;;68.47;35.60;;;;;;;4.39;66.99;101083.91;5082082;28;20537;-67
2021/03/24 03:44:14;;;;;;;80.33;40.50;;;;;;;4.41;67.38;101071.47;5081725;28;20467;-67
2021/03/24 03:46:45;;;;;;;90.33;44.00;;;;;;;4.09;70.69;101074.00;5081000;28;20460;-67
2021/03/24 03:49:11;;;;;;;88.83;43.07;;;;;;;4.18;70.95;101085.03;5081807;28;20483;-64
2021/03/24 03:51:43;;;;;;;94.93;44.67;;;;;;;4.11;71.45;101076.56;5081838;28;20487;-64
2021/03/24 03:54:14;;;;;;;87.17;44.90;;;;;;;4.08;71.25;101072.31;5082279;28;20471;-66
2021/03/24 03:56:44;;;;;;;88.03;42.80;;;;;;;4.07;71.24;101082.97;5081059;28;20529;-65
2021/03/24 03:59:13;;;;;;;98.40;46.10;;;;;;;4.01;71.92;101076.19;5081592;28;20992;-67
2021/03/24 04:01:40;;;;;;;91.87;46.57;;;;;;;4.04;71.50;101073.38;5080444;28;20480;-66
2021/03/24 04:04:10;;;;;;;79.23;42.20;;;;;;;4.26;70.68;101069.63;5081915;28;20428;-67
2021/03/24 04:06:38;;;;;;;89.97;47.00;;;;;;;3.94;71.87;101070.34;5080506;28;20480;-66
2021/03/24 04:09:06;;;;;;;85.57;46.33;;;;;;;4.07;71.44;101069.72;5081615;28;20487;-66
2021/03/24 04:11:35;;;;;;;91.90;43.70;;;;;;;4.18;70.75;101066.53;5080767;28;20468;-66
2021/03/24 04:14:03;;;;;;;92.87;46.03;;;;;;;4.11;71.03;101064.22;5081613;28;20444;-67
2021/03/24 04:16:29;;;;;;;86.20;43.63;;;;;;;4.32;70.45;101056.94;5080965;28;20861;-66
2021/03/24 04:18:58;;;;;;;88.77;43.70;;;;;;;4.18;70.71;101064.72;5081472;28;20440;-67
2021/03/24 04:21:26;;;;;;;88.83;46.33;;;;;;;4.24;69.77;101071.50;5081074;28;20491;-64
2021/03/24 04:23:56;;;;;;;100.47;47.50;;;;;;;4.19;69.92;101070.88;5081074;28;21018;-67
2021/03/24 04:26:26;;;;;;;90.83;47.70;;;;;;;4.17;70.66;101070.97;5080728;28;20479;-67
2021/03/24 04:28:55;;;;;;;80.17;42.93;;;;;;;4.28;69.40;101073.91;5081291;28;20996;-66
2021/03/24 04:31:24;;;;;;;91.80;43.17;;;;;;;4.31;69.54;101076.38;5080043;28;20476;-66
2021/03/24 04:33:50;;;;;;;87.37;44.20;;;;;;;4.26;69.00;101067.84;5081343;28;20456;-66
2021/03/24 04:36:19;;;;;;;87.17;42.03;;;;;;;4.15;69.69;101072.84;5080466;28;20518;-66
2021/03/24 04:38:48;;;;;;;89.43;47.60;;;;;;;4.05;70.21;101072.44;5080500;28;20440;-66
2021/03/24 04:41:20;;;;;;;88.47;43.93;;;;;;;4.17;69.69;101070.97;5081042;28;20483;-65
2021/03/24 04:43:52;;;;;;;81.40;44.70;;;;;;;4.17;69.23;101073.63;5081241;28;20454;-66
2021/03/24 04:46:20;;;;;;;91.80;46.73;;;;;;;4.05;69.92;101071.59;5080708;28;20468;-66
2021/03/24 04:48:49;;;;;;;96.47;46.17;;;;;;;4.14;69.31;101077.25;5081415;28;20488;-66
2021/03/24 04:51:19;;;;;;;88.40;44.53;;;;;;;4.10;69.27;101074.88;5080727;28;20486;-65
2021/03/24 04:53:48;;;;;;;79.03;45.60;;;;;;;4.13;68.65;101069.41;5081260;28;20456;-67
2021/03/24 04:56:17;;;;;;;88.13;44.23;;;;;;;4.18;69.23;101077.97;5079692;28;20475;-65
2021/03/24 04:58:44;;;;;;;101.87;46.80;;;;;;;4.11;69.45;101074.78;5081118;28;20452;-66
2021/03/24 05:01:15;;;;;;;93.43;47.47;;;;;;;4.20;69.67;101070.81;5080208;28;20484;-65
2021/03/24 05:03:42;;;;;;;88.20;47.13;;;;;;;3.95;70.84;101066.75;5080844;28;20447;-65
2021/03/24 05:06:15;;;;;;;99.47;48.07;;;;;;;4.02;70.70;101071.75;5080578;28;20467;-67
2021/03/24 05:08:43;;;;;;;94.70;47.50;;;;;;;4.13;70.57;101062.34;5079905;28;20845;-67
2021/03/24 05:11:16;;;;;;;95.23;48.77;;;;;;;4.09;70.64;101062.56;5075979;28;20480;-67
2021/03/24 05:13:45;;;;;;;99.90;50.40;;;;;;;4.21;70.04;101067.22;5072378;28;20504;-65
2021/03/24 05:16:18;;;;;;;101.80;50.20;;;;;;;4.17;70.33;101065.69;5078397;28;20483;-65
2021/03/24 05:18:45;;;;;;;91.40;47.80;;;;;;;4.24;69.90;101068.88;5076839;28;20443;-67
2021/03/24 05:21:16;;;;;;;86.43;46.80;;;;;;;4.40;69.31;101069.75;5078848;28;20503;-66
2021/03/24 05:23:43;;;;;;;92.83;47.47;;;;;;;4.41;68.42;101068.84;5068181;28;20432;-65
2021/03/24 05:26:24;;;;;;;99.83;49.40;;;;;;;4.46;67.83;101073.88;5080222;28;20495;-66
2021/03/24 05:28:53;;;;;;;84.40;47.07;;;;;;;4.36;67.61;101073.50;5065073;28;20511;-66
2021/03/24 05:31:22;;;;;;;81.67;45.33;;;;;;;4.31;68.17;101071.09;5079457;28;20476;-66
2021/03/24 05:33:52;;;;;;;88.03;45.43;;;;;;;4.40;68.54;101075.06;5078433;28;20455;-66
2021/03/24 05:36:20;;;;;;;93.43;46.60;;;;;;;4.49;67.56;101073.72;5080274;28;20488;-66
2021/03/24 05:38:47;;;;;;;84.07;43.27;;;;;;;4.64;66.99;101080.00;5083177;28;20444;-66
2021/03/24 05:41:29;;;;;;;94.57;48.60;;;;;;;4.69;67.33;101078.81;5083345;28;20472;-66
2021/03/24 05:44:15;;;;;;;93.20;48.57;;;;;;;4.77;67.92;101073.09;5080773;28;20455;-66
2021/03/24 05:46:56;;;;;;;83.47;47.23;;;;;;;4.59;68.30;101074.09;5082316;28;20483;-64
2021/03/24 05:49:30;;;;;;;84.83;46.10;;;;;;;4.89;67.84;101058.31;5083746;28;20487;-65
2021/03/24 05:52:10;;;;;;;88.10;45.93;;;;;;;5.08;66.72;101064.31;5082210;28;20479;-66
2021/03/24 05:54:52;;;;;;;84.10;45.23;;;;;;;5.17;65.51;101062.94;5083440;28;20493;-65
2021/03/24 05:57:31;;;;;;;89.73;45.93;;;;;;;5.22;64.99;101071.50;5082526;28;20989;-63
2021/03/24 06:00:08;;;;;;;82.00;43.80;;;;;;;5.32;65.24;101066.53;5082545;28;20456;-66
2021/03/24 06:02:41;;;;;;;78.57;44.30;;;;;;;5.53;64.35;101072.41;5082543;28;20464;-65
2021/03/24 06:05:11;;;;;;;82.70;43.50;;;;;;;6.02;64.61;101066.94;5082209;28;20440;-66
2021/03/24 06:08:06;;;;;;;71.30;42.60;;;;;;;6.72;60.73;101076.03;5083021;28;20436;-67
2021/03/24 06:10:46;;;;;;;70.13;41.37;;;;;;;7.66;58.96;101067.34;5080488;28;20459;-67
2021/03/24 06:14:10;;;;;;;65.73;39.30;;;;;;;7.91;57.02;101071.88;5096351;28;20443;-64
2021/03/24 06:17:00;;;;;;;64.80;37.40;;;;;;;8.25;55.59;101072.25;5082516;28;20480;-67
2021/03/24 06:19:33;;;;;;;58.30;35.53;;;;;;;8.54;54.04;101072.94;5080198;28;20490;-66
2021/03/24 06:22:05;;;;;;;55.00;34.60;;;;;;;8.75;53.75;101075.03;5082407;28;20505;-66
2021/03/24 06:24:41;;;;;;;50.60;31.27;;;;;;;9.04;52.61;101073.84;5082408;28;20447;-66
2021/03/24 06:27:33;;;;;;;52.50;32.80;;;;;;;9.74;51.49;101066.94;5081912;28;21024;-67
2021/03/24 06:30:05;;;;;;;51.23;33.53;;;;;;;10.16;49.91;101064.63;5082264;28;20483;-67
2021/03/24 06:32:55;;;;;;;54.27;34.57;;;;;;;10.72;48.41;101071.91;5081903;28;20797;-67
2021/03/24 06:35:33;;;;;;;51.07;32.00;;;;;;;11.18;48.88;101063.84;5079556;28;20460;-67
2021/03/24 06:38:11;;;;;;;48.23;30.17;;;;;;;12.00;46.24;101063.38;5081768;28;20483;-68
2021/03/24 06:40:49;;;;;;;47.67;31.10;;;;;;;12.59;44.18;101072.63;5081014;28;20501;-65
2021/03/24 06:43:26;;;;;;;46.67;31.13;;;;;;;12.95;44.00;101073.03;5082720;28;20447;-66
2021/03/24 06:45:58;;;;;;;45.00;30.47;;;;;;;13.24;43.25;101066.91;5082137;28;20529;-69
2021/03/24 06:48:40;;;;;;;47.70;33.50;;;;;;;14.15;41.04;101083.69;5081496;28;20462;-65
2021/03/24 06:51:37;;;;;;;49.83;34.00;;;;;;;14.61;39.87;101078.50;5081239;28;20506;-67
2021/03/24 06:54:14;;;;;;;43.20;30.97;;;;;;;14.13;40.07;101073.06;5062403;28;20769;-66
2021/03/24 06:57:16;;;;;;;46.27;31.40;;;;;;;13.60;40.36;101070.81;5079578;28;20475;-70
2021/03/24 07:00:06;;;;;;;44.77;31.67;;;;;;;12.79;43.14;101071.72;5082389;28;20451;-69
2021/03/24 07:03:18;;;;;;;46.30;33.20;;;;;;;11.76;45.54;101068.91;5081886;28;20440;-69
2021/03/24 07:05:54;;;;;;;46.50;34.50;;;;;;;12.31;44.68;101076.81;5000027;28;20475;-69
2021/03/24 07:08:34;;;;;;;44.60;34.23;;;;;;;12.79;43.74;101074.41;4999462;28;20463;-69
2021/03/24 07:11:13;;;;;;;49.77;34.20;;;;;;;13.03;42.99;101075.88;4997434;28;20618;-69
2021/03/24 07:14:15;;;;;;;48.10;33.37;;;;;;;13.06;43.34;101085.53;5000664;28;20455;-67
2021/03/24 07:17:05;;;;;;;48.00;34.60;;;;;;;13.27;43.25;101078.22;4995060;28;20466;-65
2021/03/24 07:19:45;;;;;;;49.53;34.90;;;;;;;14.28;41.56;101083.38;5000080;28;20459;-64
2021/03/24 07:22:24;;;;;;;48.20;34.80;;;;;;;15.41;38.33;101076.97;4997893;28;20826;-65
2021/03/24 07:25:01;;;;;;;43.73;34.20;;;;;;;16.07;37.25;101077.63;4998719;28;20459;-64
2021/03/24 07:27:41;;;;;;;43.73;32.60;;;;;;;15.90;36.82;101078.50;4998774;28;20479;-63
2021/03/24 07:30:22;;;;;;;45.23;34.00;;;;;;;16.00;37.08;101082.81;4998493;28;20801;-63
2021/03/24 07:32:52;;;;;;;44.50;33.17;;;;;;;17.10;35.66;101083.19;4979336;28;21009;-63
2021/03/24 07:35:33;;;;;;;49.80;35.00;;;;;;;16.96;35.31;101083.81;4979305;28;20468;-63
2021/03/24 07:38:51;;;;;;;43.67;32.67;;;;;;;18.12;33.64;101074.91;4979654;28;20748;-63
2021/03/24 07:41:45;;;;;;;38.27;31.30;;;;;;;18.32;32.89;101075.41;5023969;28;21001;-62
2021/03/24 07:44:56;;;;;;;35.50;26.77;;;;;;;18.41;33.82;101085.22;5061215;28;20472;-63
2021/03/24 07:47:30;;;;;;;38.63;28.97;;;;;;;19.90;31.59;101080.03;5050473;28;20511;-63
2021/03/24 07:50:09;;;;;;;39.80;26.37;;;;;;;19.18;32.06;101086.53;5061224;28;20484;-63
2021/03/24 07:53:09;;;;;;;33.57;25.60;;;;;;;17.31;34.58;101085.44;5060967;28;20453;-64
2021/03/24 07:55:39;;;;;;;31.67;24.73;;;;;;;18.74;33.42;101085.13;5059344;28;20545;-64
2021/03/24 07:58:18;;;;;;;38.67;24.80;;;;;;;18.68;33.13;101084.97;5060070;28;20464;-63
2021/03/24 08:00:49;;;;;;;30.80;23.47;;;;;;;18.36;32.52;101076.75;5071377;28;21039;-61
2021/03/24 08:03:18;;;;;;;32.23;24.37;;;;;;;18.85;31.40;101081.25;5079997;28;20436;-61
2021/03/24 08:06:04;;;;;;;33.80;25.47;;;;;;;17.94;34.19;101071.56;5079497;28;20837;-60
2021/03/24 08:08:48;;;;;;;33.37;24.70;;;;;;;18.48;32.75;101069.13;5078754;28;20956;-61
2021/03/24 08:11:20;;;;;;;34.50;23.27;;;;;;;16.60;36.16;101074.97;5076856;28;20550;-61
2021/03/24 08:14:03;;;;;;;32.87;23.63;;;;;;;18.08;34.49;101068.16;5079381;28;20460;-63
2021/03/24 08:17:01;;;;;;;33.10;24.63;;;;;;;17.50;34.27;101069.97;5079093;28;20484;-68
2021/03/24 08:19:58;;;;;;;33.73;24.63;;;;;;;17.82;33.37;101063.72;5078948;28;20668;-63
2021/03/24 08:22:36;;;;;;;30.53;23.53;;;;;;;17.43;34.55;101064.38;5076323;28;20529;-67
2021/03/24 08:25:13;;;;;;;32.60;24.50;;;;;;;18.54;33.09;101056.75;5080956;28;20462;-68
2021/03/24 08:27:45;;;;;;;35.07;24.10;;;;;;;16.89;35.20;101059.28;5079134;28;20467;-64
2021/03/24 08:30:18;;;;;;;34.50;24.57;;;;;;;17.92;34.18;101069.00;5079220;28;20487;-64
2021/03/24 08:33:14;;;;;;;35.83;23.83;;;;;;;18.11;33.50;101067.84;5078554;28;20744;-64
2021/03/24 08:35:52;;;;;;;33.10;23.87;;;;;;;20.25;29.88;101066.81;5079590;28;20498;-62
2021/03/24 08:38:39;;;;;;;37.40;26.70;;;;;;;18.17;33.55;101060.88;5059912;28;20507;-62
2021/03/24 08:41:39;;;;;;;35.83;25.20;;;;;;;19.26;31.03;101072.09;5053550;28;20464;-63
2021/03/24 08:44:11;;;;;;;36.53;26.40;;;;;;;20.34;30.19;101068.44;5040092;28;20489;-64
2021/03/24 08:46:41;;;;;;;40.97;27.20;;;;;;;19.89;30.56;101073.75;5057125;28;20464;-64
2021/03/24 08:49:12;;;;;;;33.47;27.37;;;;;;;19.56;30.96;101071.25;5060287;28;20492;-63
2021/03/24 08:51:49;;;;;;;36.20;27.07;;;;;;;18.38;32.90;101074.75;5056708;28;20542;-65
2021/03/24 08:54:53;;;;;;;34.33;25.70;;;;;;;18.61;32.76;101074.84;5055535;28;20791;-62
2021/03/24 08:57:43;;;;;;;39.40;26.57;;;;;;;20.69;29.42;101063.34;5052707;28;20473;-64
2021/03/24 09:00:27;;;;;;;38.83;28.63;;;;;;;20.80;29.31;101060.16;5059297;28;20449;-64
2021/03/24 09:03:02;;;;;;;32.40;25.37;;;;;;;20.84;28.84;101061.47;5059029;28;20950;-63
2021/03/24 09:05:30;;;;;;;41.03;28.40;;;;;;;19.65;31.00;101053.06;5048281;28;20558;-64
2021/03/24 09:08:27;;;;;;;42.27;27.40;;;;;;;20.79;28.90;101055.75;5040001;28;20459;-63
2021/03/24 09:11:16;;;;;;;38.10;27.40;;;;;;;20.67;29.72;101047.22;5047712;28;20475;-65
2021/03/24 09:13:44;;;;;;;34.13;27.17;;;;;;;20.25;29.84;101050.53;5063238;28;20944;-64
2021/03/24 09:16:47;;;;;;;39.83;27.60;;;;;;;21.08;28.83;101053.19;5059195;28;20483;-64
2021/03/24 09:19:25;;;;;;;33.90;25.37;;;;;;;21.56;28.41;101056.28;5060783;28;20461;-64
2021/03/24 09:21:56;;;;;;;35.57;26.90;;;;;;;21.15;28.43;101051.41;5062733;28;20483;-72
2021/03/24 09:24:50;;;;;;;39.67;29.80;;;;;;;19.90;29.76;101047.47;5063885;28;20444;-69
2021/03/24 09:27:52;;;;;;;40.70;29.63;;;;;;;19.70;31.67;101044.34;5058445;28;20476;-69
2021/03/24 09:30:48;;;;;;;38.97;29.70;;;;;;;18.19;34.26;101040.78;5062455;28;20483;-68
2021/03/24 09:33:47;;;;;;;38.17;29.77;;;;;;;17.97;35.49;101041.47;5062911;28;20475;-64
2021/03/24 09:36:34;;;;;;;43.80;28.97;;;;;;;19.89;31.78;101041.19;5064154;28;20491;-61
2021/03/24 09:39:12;;;;;;;38.23;28.70;;;;;;;20.71;30.79;101041.41;5083212;28;20446;-65
2021/03/24 09:41:43;;;;;;;39.60;28.53;;;;;;;20.01;30.96;101040.75;5081990;28;20499;-63
2021/03/24 09:44:15;;;;;;;39.13;30.03;;;;;;;17.87;35.25;101042.47;5082858;28;20512;-64
2021/03/24 09:46:43;;;;;;;45.13;33.07;;;;;;;17.11;36.17;101044.31;5081729;28;20545;-63
2021/03/24 09:49:16;;;;;;;41.07;29.10;;;;;;;19.62;32.30;101039.00;5083220;28;20514;-63
2021/03/24 09:51:48;;;;;;;40.17;32.30;;;;;;;21.08;29.87;101034.16;5082449;28;20494;-63
2021/03/24 09:54:22;;;;;;;41.17;30.53;;;;;;;22.50;28.08;101039.72;5081142;28;20462;-65
2021/03/24 09:56:58;;;;;;;46.27;31.57;;;;;;;21.71;27.67;101034.44;5082807;28;20497;-62
2021/03/24 09:59:30;;;;;;;45.30;33.20;;;;;;;20.61;29.94;101031.66;5082518;28;20459;-63
2021/03/24 10:02:03;;;;;;;43.00;33.93;;;;;;;18.44;33.66;101030.72;5081506;28;20475;-64
2021/03/24 10:04:52;;;;;;;50.50;35.20;;;;;;;18.12;34.75;101033.50;5083720;28;20440;-63
2021/03/24 10:07:22;;;;;;;45.63;34.20;;;;;;;17.92;35.18;101033.84;5082485;28;20528;-63
2021/03/24 10:09:56;;;;;;;43.07;31.83;;;;;;;18.66;34.72;101039.09;5079839;28;20734;-64
2021/03/24 10:12:30;;;;;;;46.33;33.53;;;;;;;18.69;34.13;101037.94;5082194;28;20471;-64
2021/03/24 10:15:08;;;;;;;49.50;34.60;;;;;;;17.38;36.20;101030.75;5074205;28;21066;-63
2021/03/24 10:17:36;;;;;;;45.17;32.40;;;;;;;18.44;34.88;101033.44;5081031;28;20468;-61
2021/03/24 10:20:08;;;;;;;47.27;33.40;;;;;;;18.69;34.51;101027.09;5082380;28;20452;-62
2021/03/24 10:22:38;;;;;;;41.40;32.67;;;;;;;19.57;33.31;101020.56;5081887;28;20449;-63
2021/03/24 10:25:08;;;;;;;44.87;32.70;;;;;;;19.59;33.15;101023.09;5081472;28;20458;-63
2021/03/24 10:27:34;;;;;;;41.20;31.10;;;;;;;18.97;34.21;101032.94;5082514;28;20497;-70
2021/03/24 10:30:07;;;;;;;51.50;34.23;;;;;;;17.88;35.40;101019.81;5075656;28;20480;-63
2021/03/24 10:32:37;;;;;;;46.10;34.60;;;;;;;16.30;38.96;101020.44;5081369;28;20448;-62
2021/03/24 10:35:09;;;;;;;49.07;33.90;;;;;;;17.57;36.88;101022.31;5082452;28;20464;-65
2021/03/24 10:37:45;;;;;;;48.63;31.67;;;;;;;16.99;38.48;101029.44;5080787;28;20480;-66
2021/03/24 10:40:14;;;;;;;47.00;30.73;;;;;;;17.49;38.78;101017.72;5080556;28;21432;-67
2021/03/24 10:42:44;;;;;;;48.07;34.30;;;;;;;17.01;37.70;101015.75;5082665;28;20442;-68
2021/03/24 10:45:20;;;;;;;51.23;33.17;;;;;;;17.55;37.27;101010.81;5078591;28;20493;-67
2021/03/24 10:47:52;;;;;;;49.70;33.80;;;;;;;17.80;37.33;101010.81;5080934;28;20463;-65
2021/03/24 10:50:39;;;;;;;48.50;34.67;;;;;;;18.06;36.61;101013.38;5081596;28;20486;-67
2021/03/24 10:53:15;;;;;;;48.73;33.50;;;;;;;18.23;36.37;101015.03;5081863;28;20529;-66
2021/03/24 10:55:43;;;;;;;48.97;35.20;;;;;;;18.80;35.63;101011.31;5080517;28;20472;-66
2021/03/24 10:58:29;;;;;;;50.37;33.63;;;;;;;19.94;33.13;101000.75;5081895;28;20451;-65
2021/03/24 11:01:05;;;;;;;49.83;32.50;;;;;;;19.34;33.54;101001.56;5093304;28;20473;-67
2021/03/24 11:03:35;;;;;;;44.97;33.80;;;;;;;19.44;33.16;101004.84;5101382;28;20465;-66
2021/03/24 11:06:05;;;;;;;52.03;35.93;;;;;;;19.18;34.01;100994.38;5102014;28;20463;-68
2021/03/24 11:08:37;;;;;;;43.90;31.63;;;;;;;18.43;33.67;100990.28;5084406;28;20440;-66
2021/03/24 11:11:09;;;;;;;45.73;33.03;;;;;;;20.09;32.16;100991.81;5076460;28;20483;-67
2021/03/24 11:13:38;;;;;;;45.90;34.40;;;;;;;19.33;32.32;100984.44;5061336;28;20484;-65
2021/03/24 11:16:08;;;;;;;47.43;33.07;;;;;;;18.40;34.45;100983.38;5075798;28;20480;-63
2021/03/24 11:18:43;;;;;;;44.63;34.57;;;;;;;17.26;36.15;100976.16;5080804;28;20463;-69
2021/03/24 11:21:30;;;;;;;52.57;33.57;;;;;;;19.49;33.21;100982.63;5077064;28;20479;-66
2021/03/24 11:24:10;;;;;;;52.00;35.70;;;;;;;18.30;34.21;100976.44;5071077;28;20436;-67
2021/03/24 11:26:50;;;;;;;47.50;33.13;;;;;;;19.18;35.80;100975.38;5073846;28;20473;-65
2021/03/24 11:29:21;;;;;;;44.30;34.03;;;;;;;17.36;36.34;100975.97;5077840;28;20495;-67
2021/03/24 11:31:55;;;;;;;47.33;33.20;;;;;;;18.51;35.01;100975.88;5076524;28;20484;-66
2021/03/24 11:34:24;;;;;;;45.97;30.53;;;;;;;17.32;35.72;100978.16;5075659;28;20485;-66
2021/03/24 11:36:55;;;;;;;42.43;30.20;;;;;;;17.51;36.00;100966.19;5075393;28;20510;-64
2021/03/24 11:39:27;;;;;;;45.67;31.17;;;;;;;18.02;35.48;100961.47;5076793;28;20536;-67
2021/03/24 11:42:08;;;;;;;43.40;30.33;;;;;;;18.39;33.69;100965.41;5079801;28;20884;-65
2021/03/24 11:44:34;;;;;;;42.00;28.60;;;;;;;19.22;33.54;100959.59;5080888;28;20459;-67
2021/03/24 11:47:05;;;;;;;47.93;29.53;;;;;;;18.40;33.67;100948.16;5079194;28;20475;-68